sensor_id;sensor_type;location;lat;lon;timestamp;P1;durP1;ratioP1;P2;durP2;ratioP2
11414;SDS011;5763;42.714;23.244;2022-11-09T00:00:08;23.52;;;18.05;;
11414;SDS011;5763;42.714;23.244;2022-11-09T00:02:36;24.95;;;18.55;;
11414;SDS011;5763;42.714;23.244;2022-11-09T00:05:03;26.95;;;19.08;;
11414;SDS011;5763;42.714;23.244;2022-11-09T00:07:32;25.73;;;17.83;;
11414;SDS011;5763;42.714;23.244;2022-11-09T00:09:59;24.38;;;17.48;;
11414;SDS011;5763;42.714;23.244;2022-11-09T00:12:26;22.20;;;16.50;;
11414;SDS011;5763;42.714;23.244;2022-11-09T00:14:53;22.17;;;16.40;;
11414;SDS011;5763;42.714;23.244;2022-11-09T00:17:19;22.98;;;17.75;;
11414;SDS011;5763;42.714;23.244;2022-11-09T00:19:46;26.17;;;17.45;;
11414;SDS011;5763;42.714;23.244;2022-11-09T00:22:13;23.20;;;16.90;;
11414;SDS011;5763;42.714;23.244;2022-11-09T00:24:41;22.88;;;16.55;;
11414;SDS011;5763;42.714;23.244;2022-11-09T00:27:08;23.90;;;16.60;;
11414;SDS011;5763;42.714;23.244;2022-11-09T00:29:35;23.52;;;18.05;;
11414;SDS011;5763;42.714;23.244;2022-11-09T00:32:02;24.58;;;17.20;;
11414;SDS011;5763;42.714;23.244;2022-11-09T00:34:29;26.35;;;18.23;;
11414;SDS011;5763;42.714;23.244;2022-11-09T00:36:55;22.95;;;16.98;;
11414;SDS011;5763;42.714;23.244;2022-11-09T00:39:22;23.48;;;16.25;;
11414;SDS011;5763;42.714;23.244;2022-11-09T00:41:50;22.60;;;17.10;;
11414;SDS011;5763;42.714;23.244;2022-11-09T00:44:17;21.33;;;16.70;;
11414;SDS011;5763;42.714;23.244;2022-11-09T00:46:44;22.70;;;16.13;;
11414;SDS011;5763;42.714;23.244;2022-11-09T00:49:11;19.73;;;14.90;;
11414;SDS011;5763;42.714;23.244;2022-11-09T00:51:37;22.65;;;16.48;;
11414;SDS011;5763;42.714;23.244;2022-11-09T00:54:04;20.13;;;15.50;;
11414;SDS011;5763;42.714;23.244;2022-11-09T00:56:32;19.67;;;15.15;;
11414;SDS011;5763;42.714;23.244;2022-11-09T00:59:00;18.48;;;14.70;;
11414;SDS011;5763;42.714;23.244;2022-11-09T01:01:27;17.10;;;13.90;;
11414;SDS011;5763;42.714;23.244;2022-11-09T01:03:54;18.27;;;14.15;;
11414;SDS011;5763;42.714;23.244;2022-11-09T01:06:21;18.95;;;14.70;;
11414;SDS011;5763;42.714;23.244;2022-11-09T01:08:49;18.08;;;13.48;;
11414;SDS011;5763;42.714;23.244;2022-11-09T01:11:17;17.80;;;14.00;;
11414;SDS011;5763;42.714;23.244;2022-11-09T01:13:45;20.88;;;14.35;;
11414;SDS011;5763;42.714;23.244;2022-11-09T01:16:14;18.20;;;13.85;;
11414;SDS011;5763;42.714;23.244;2022-11-09T01:18:42;19.27;;;14.07;;
11414;SDS011;5763;42.714;23.244;2022-11-09T01:21:11;18.30;;;13.55;;
11414;SDS011;5763;42.714;23.244;2022-11-09T01:23:40;21.48;;;14.05;;
11414;SDS011;5763;42.714;23.244;2022-11-09T01:26:08;18.48;;;14.50;;
11414;SDS011;5763;42.714;23.244;2022-11-09T01:28:36;21.27;;;14.38;;
11414;SDS011;5763;42.714;23.244;2022-11-09T01:31:04;19.35;;;13.80;;
11414;SDS011;5763;42.714;23.244;2022-11-09T01:33:33;18.90;;;13.68;;
11414;SDS011;5763;42.714;23.244;2022-11-09T01:36:01;20.52;;;14.05;;
11414;SDS011;5763;42.714;23.244;2022-11-09T01:38:28;16.35;;;12.90;;
11414;SDS011;5763;42.714;23.244;2022-11-09T01:40:55;16.60;;;13.18;;
11414;SDS011;5763;42.714;23.244;2022-11-09T01:43:22;19.33;;;13.07;;
11414;SDS011;5763;42.714;23.244;2022-11-09T01:45:50;18.20;;;13.80;;
11414;SDS011;5763;42.714;23.244;2022-11-09T01:48:21;16.70;;;13.52;;
11414;SDS011;5763;42.714;23.244;2022-11-09T01:50:55;18.20;;;13.98;;
11414;SDS011;5763;42.714;23.244;2022-11-09T01:53:25;22.30;;;15.35;;
11414;SDS011;5763;42.714;23.244;2022-11-09T01:55:56;18.40;;;14.65;;
11414;SDS011;5763;42.714;23.244;2022-11-09T01:58:29;17.13;;;14.18;;
11414;SDS011;5763;42.714;23.244;2022-11-09T02:01:02;19.60;;;15.23;;
11414;SDS011;5763;42.714;23.244;2022-11-09T02:03:36;19.83;;;15.82;;
11414;SDS011;5763;42.714;23.244;2022-11-09T02:06:07;19.75;;;14.73;;
11414;SDS011;5763;42.714;23.244;2022-11-09T02:08:37;18.30;;;14.35;;
11414;SDS011;5763;42.714;23.244;2022-11-09T02:11:06;19.52;;;14.40;;
11414;SDS011;5763;42.714;23.244;2022-11-09T02:13:34;20.23;;;15.82;;
11414;SDS011;5763;42.714;23.244;2022-11-09T02:16:04;21.38;;;16.38;;
11414;SDS011;5763;42.714;23.244;2022-11-09T02:18:32;21.65;;;16.52;;
11414;SDS011;5763;42.714;23.244;2022-11-09T02:21:01;22.25;;;15.38;;
11414;SDS011;5763;42.714;23.244;2022-11-09T02:23:28;20.17;;;15.43;;
11414;SDS011;5763;42.714;23.244;2022-11-09T02:25:55;21.30;;;16.00;;
11414;SDS011;5763;42.714;23.244;2022-11-09T02:28:25;19.17;;;15.23;;
11414;SDS011;5763;42.714;23.244;2022-11-09T02:30:53;22.10;;;14.60;;
11414;SDS011;5763;42.714;23.244;2022-11-09T02:33:22;21.67;;;15.68;;
11414;SDS011;5763;42.714;23.244;2022-11-09T02:35:49;21.58;;;15.75;;
11414;SDS011;5763;42.714;23.244;2022-11-09T02:38:17;23.92;;;16.17;;
11414;SDS011;5763;42.714;23.244;2022-11-09T02:40:45;22.35;;;16.15;;
11414;SDS011;5763;42.714;23.244;2022-11-09T02:43:15;21.25;;;16.48;;
11414;SDS011;5763;42.714;23.244;2022-11-09T02:45:43;20.50;;;15.85;;
11414;SDS011;5763;42.714;23.244;2022-11-09T02:48:09;23.10;;;15.52;;
11414;SDS011;5763;42.714;23.244;2022-11-09T02:50:36;22.35;;;16.17;;
11414;SDS011;5763;42.714;23.244;2022-11-09T02:53:03;21.85;;;16.45;;
11414;SDS011;5763;42.714;23.244;2022-11-09T02:55:31;19.77;;;15.23;;
11414;SDS011;5763;42.714;23.244;2022-11-09T02:57:58;21.02;;;15.60;;
11414;SDS011;5763;42.714;23.244;2022-11-09T03:00:25;20.85;;;15.55;;
11414;SDS011;5763;42.714;23.244;2022-11-09T03:02:52;22.08;;;16.05;;
11414;SDS011;5763;42.714;23.244;2022-11-09T03:05:19;21.30;;;15.52;;
11414;SDS011;5763;42.714;23.244;2022-11-09T03:07:46;23.65;;;15.82;;
11414;SDS011;5763;42.714;23.244;2022-11-09T03:10:13;19.45;;;15.27;;
11414;SDS011;5763;42.714;23.244;2022-11-09T03:12:41;19.65;;;14.93;;
11414;SDS011;5763;42.714;23.244;2022-11-09T03:15:08;19.98;;;14.77;;
11414;SDS011;5763;42.714;23.244;2022-11-09T03:17:36;24.67;;;18.17;;
11414;SDS011;5763;42.714;23.244;2022-11-09T03:20:03;22.70;;;17.10;;
11414;SDS011;5763;42.714;23.244;2022-11-09T03:22:31;20.33;;;15.82;;
11414;SDS011;5763;42.714;23.244;2022-11-09T03:24:58;22.23;;;16.10;;
11414;SDS011;5763;42.714;23.244;2022-11-09T03:27:24;19.67;;;15.60;;
11414;SDS011;5763;42.714;23.244;2022-11-09T03:29:52;21.02;;;15.48;;
11414;SDS011;5763;42.714;23.244;2022-11-09T03:32:19;26.90;;;18.73;;
11414;SDS011;5763;42.714;23.244;2022-11-09T03:34:46;22.77;;;17.30;;
11414;SDS011;5763;42.714;23.244;2022-11-09T03:37:13;24.73;;;16.60;;
11414;SDS011;5763;42.714;23.244;2022-11-09T03:39:40;19.73;;;14.55;;
11414;SDS011;5763;42.714;23.244;2022-11-09T03:42:06;19.65;;;15.07;;
11414;SDS011;5763;42.714;23.244;2022-11-09T03:44:33;24.30;;;15.68;;
11414;SDS011;5763;42.714;23.244;2022-11-09T03:47:01;22.38;;;15.50;;
11414;SDS011;5763;42.714;23.244;2022-11-09T03:49:28;22.85;;;15.75;;
11414;SDS011;5763;42.714;23.244;2022-11-09T03:51:55;20.33;;;15.75;;
11414;SDS011;5763;42.714;23.244;2022-11-09T03:54:22;22.02;;;15.85;;
11414;SDS011;5763;42.714;23.244;2022-11-09T03:56:49;20.80;;;14.80;;
11414;SDS011;5763;42.714;23.244;2022-11-09T03:59:15;24.38;;;17.90;;
11414;SDS011;5763;42.714;23.244;2022-11-09T04:01:43;24.33;;;18.33;;
11414;SDS011;5763;42.714;23.244;2022-11-09T04:04:11;20.80;;;15.80;;
11414;SDS011;5763;42.714;23.244;2022-11-09T04:06:38;21.70;;;16.45;;
11414;SDS011;5763;42.714;23.244;2022-11-09T04:09:04;19.40;;;15.10;;
11414;SDS011;5763;42.714;23.244;2022-11-09T04:11:31;20.80;;;15.20;;
11414;SDS011;5763;42.714;23.244;2022-11-09T04:13:58;21.38;;;15.73;;
11414;SDS011;5763;42.714;23.244;2022-11-09T04:16:25;21.65;;;16.02;;
11414;SDS011;5763;42.714;23.244;2022-11-09T04:18:52;20.98;;;16.45;;
11414;SDS011;5763;42.714;23.244;2022-11-09T04:21:20;24.33;;;17.83;;
11414;SDS011;5763;42.714;23.244;2022-11-09T04:23:47;23.52;;;18.08;;
11414;SDS011;5763;42.714;23.244;2022-11-09T04:26:14;28.83;;;20.77;;
11414;SDS011;5763;42.714;23.244;2022-11-09T04:28:41;24.27;;;18.35;;
11414;SDS011;5763;42.714;23.244;2022-11-09T04:31:08;23.90;;;17.65;;
11414;SDS011;5763;42.714;23.244;2022-11-09T04:33:34;23.15;;;17.20;;
11414;SDS011;5763;42.714;23.244;2022-11-09T04:36:03;23.17;;;16.75;;
11414;SDS011;5763;42.714;23.244;2022-11-09T04:38:32;25.75;;;18.88;;
11414;SDS011;5763;42.714;23.244;2022-11-09T04:41:00;23.45;;;18.38;;
11414;SDS011;5763;42.714;23.244;2022-11-09T04:43:28;24.42;;;18.23;;
11414;SDS011;5763;42.714;23.244;2022-11-09T04:45:57;24.00;;;17.42;;
11414;SDS011;5763;42.714;23.244;2022-11-09T04:48:25;24.85;;;17.40;;
11414;SDS011;5763;42.714;23.244;2022-11-09T04:50:51;23.42;;;16.38;;
11414;SDS011;5763;42.714;23.244;2022-11-09T04:53:23;27.20;;;17.60;;
11414;SDS011;5763;42.714;23.244;2022-11-09T04:55:51;25.67;;;17.48;;
11414;SDS011;5763;42.714;23.244;2022-11-09T04:58:18;22.83;;;17.52;;
11414;SDS011;5763;42.714;23.244;2022-11-09T05:00:45;25.10;;;18.17;;
11414;SDS011;5763;42.714;23.244;2022-11-09T05:03:12;22.63;;;16.35;;
11414;SDS011;5763;42.714;23.244;2022-11-09T05:05:39;22.48;;;15.73;;
11414;SDS011;5763;42.714;23.244;2022-11-09T05:08:06;20.80;;;16.17;;
11414;SDS011;5763;42.714;23.244;2022-11-09T05:10:34;19.13;;;15.88;;
11414;SDS011;5763;42.714;23.244;2022-11-09T05:13:03;25.13;;;17.20;;
11414;SDS011;5763;42.714;23.244;2022-11-09T05:15:31;23.33;;;17.60;;
11414;SDS011;5763;42.714;23.244;2022-11-09T05:17:59;21.73;;;16.67;;
11414;SDS011;5763;42.714;23.244;2022-11-09T05:20:26;23.42;;;17.85;;
11414;SDS011;5763;42.714;23.244;2022-11-09T05:22:53;26.35;;;18.38;;
11414;SDS011;5763;42.714;23.244;2022-11-09T05:25:39;25.50;;;18.23;;
11414;SDS011;5763;42.714;23.244;2022-11-09T05:28:07;26.52;;;17.35;;
11414;SDS011;5763;42.714;23.244;2022-11-09T05:30:34;24.10;;;18.20;;
11414;SDS011;5763;42.714;23.244;2022-11-09T05:33:01;23.23;;;17.38;;
11414;SDS011;5763;42.714;23.244;2022-11-09T05:35:28;25.00;;;18.25;;
11414;SDS011;5763;42.714;23.244;2022-11-09T05:37:55;23.58;;;17.80;;
11414;SDS011;5763;42.714;23.244;2022-11-09T05:40:22;25.00;;;17.08;;
11414;SDS011;5763;42.714;23.244;2022-11-09T05:42:49;23.05;;;17.67;;
11414;SDS011;5763;42.714;23.244;2022-11-09T05:45:17;21.88;;;16.20;;
11414;SDS011;5763;42.714;23.244;2022-11-09T05:47:44;23.17;;;17.27;;
11414;SDS011;5763;42.714;23.244;2022-11-09T05:50:12;23.42;;;17.17;;
11414;SDS011;5763;42.714;23.244;2022-11-09T05:52:40;28.20;;;19.05;;
11414;SDS011;5763;42.714;23.244;2022-11-09T05:55:07;24.38;;;18.15;;
11414;SDS011;5763;42.714;23.244;2022-11-09T05:57:34;25.00;;;18.33;;
11414;SDS011;5763;42.714;23.244;2022-11-09T06:00:01;24.40;;;18.27;;
11414;SDS011;5763;42.714;23.244;2022-11-09T06:02:30;27.08;;;18.98;;
11414;SDS011;5763;42.714;23.244;2022-11-09T06:04:57;26.00;;;18.70;;
11414;SDS011;5763;42.714;23.244;2022-11-09T06:07:24;27.20;;;17.95;;
11414;SDS011;5763;42.714;23.244;2022-11-09T06:09:51;24.23;;;18.52;;
11414;SDS011;5763;42.714;23.244;2022-11-09T06:12:18;22.63;;;17.08;;
11414;SDS011;5763;42.714;23.244;2022-11-09T06:14:45;25.58;;;16.92;;
11414;SDS011;5763;42.714;23.244;2022-11-09T06:17:11;25.10;;;18.13;;
11414;SDS011;5763;42.714;23.244;2022-11-09T06:19:39;23.13;;;17.48;;
11414;SDS011;5763;42.714;23.244;2022-11-09T06:22:06;26.40;;;18.30;;
11414;SDS011;5763;42.714;23.244;2022-11-09T06:24:33;22.92;;;16.92;;
11414;SDS011;5763;42.714;23.244;2022-11-09T06:27:00;24.35;;;17.70;;
11414;SDS011;5763;42.714;23.244;2022-11-09T06:29:27;26.38;;;18.48;;
11414;SDS011;5763;42.714;23.244;2022-11-09T06:31:54;25.05;;;17.98;;
11414;SDS011;5763;42.714;23.244;2022-11-09T06:34:21;25.10;;;17.83;;
11414;SDS011;5763;42.714;23.244;2022-11-09T06:36:49;24.98;;;18.58;;
11414;SDS011;5763;42.714;23.244;2022-11-09T06:39:16;25.30;;;18.52;;
11414;SDS011;5763;42.714;23.244;2022-11-09T06:41:42;24.55;;;18.05;;
11414;SDS011;5763;42.714;23.244;2022-11-09T06:44:09;23.60;;;18.55;;
11414;SDS011;5763;42.714;23.244;2022-11-09T06:46:36;24.50;;;18.25;;
11414;SDS011;5763;42.714;23.244;2022-11-09T06:49:03;25.65;;;19.35;;
11414;SDS011;5763;42.714;23.244;2022-11-09T06:51:30;23.95;;;19.00;;
11414;SDS011;5763;42.714;23.244;2022-11-09T06:53:58;25.75;;;19.33;;
11414;SDS011;5763;42.714;23.244;2022-11-09T06:56:24;28.73;;;19.50;;
11414;SDS011;5763;42.714;23.244;2022-11-09T06:58:51;28.60;;;19.85;;
11414;SDS011;5763;42.714;23.244;2022-11-09T07:01:26;32.00;;;20.25;;
11414;SDS011;5763;42.714;23.244;2022-11-09T07:03:53;25.88;;;20.25;;
11414;SDS011;5763;42.714;23.244;2022-11-09T07:06:20;28.73;;;20.60;;
11414;SDS011;5763;42.714;23.244;2022-11-09T07:08:47;27.77;;;21.17;;
11414;SDS011;5763;42.714;23.244;2022-11-09T07:11:15;26.08;;;20.00;;
11414;SDS011;5763;42.714;23.244;2022-11-09T07:13:43;25.85;;;19.35;;
11414;SDS011;5763;42.714;23.244;2022-11-09T07:16:10;28.08;;;21.55;;
11414;SDS011;5763;42.714;23.244;2022-11-09T07:18:41;26.67;;;20.20;;
11414;SDS011;5763;42.714;23.244;2022-11-09T07:21:08;27.52;;;20.65;;
11414;SDS011;5763;42.714;23.244;2022-11-09T07:23:35;28.20;;;20.42;;
11414;SDS011;5763;42.714;23.244;2022-11-09T07:26:02;27.52;;;20.33;;
11414;SDS011;5763;42.714;23.244;2022-11-09T07:28:31;28.25;;;20.58;;
11414;SDS011;5763;42.714;23.244;2022-11-09T07:30:57;28.58;;;20.77;;
11414;SDS011;5763;42.714;23.244;2022-11-09T07:33:24;27.17;;;21.17;;
11414;SDS011;5763;42.714;23.244;2022-11-09T07:35:54;29.88;;;21.90;;
11414;SDS011;5763;42.714;23.244;2022-11-09T07:38:22;25.88;;;20.65;;
11414;SDS011;5763;42.714;23.244;2022-11-09T07:40:49;30.52;;;21.75;;
11414;SDS011;5763;42.714;23.244;2022-11-09T07:43:16;26.45;;;20.60;;
11414;SDS011;5763;42.714;23.244;2022-11-09T07:45:44;28.92;;;22.02;;
11414;SDS011;5763;42.714;23.244;2022-11-09T07:48:11;28.15;;;21.23;;
11414;SDS011;5763;42.714;23.244;2022-11-09T07:50:38;25.90;;;21.10;;
11414;SDS011;5763;42.714;23.244;2022-11-09T07:53:05;27.27;;;21.40;;
11414;SDS011;5763;42.714;23.244;2022-11-09T07:55:33;28.92;;;21.42;;
11414;SDS011;5763;42.714;23.244;2022-11-09T07:58:01;28.80;;;22.67;;
11414;SDS011;5763;42.714;23.244;2022-11-09T08:00:30;28.58;;;22.42;;
11414;SDS011;5763;42.714;23.244;2022-11-09T08:02:59;30.77;;;22.90;;
11414;SDS011;5763;42.714;23.244;2022-11-09T08:05:26;30.25;;;22.30;;
11414;SDS011;5763;42.714;23.244;2022-11-09T08:07:54;28.83;;;21.52;;
11414;SDS011;5763;42.714;23.244;2022-11-09T08:10:21;29.73;;;22.55;;
11414;SDS011;5763;42.714;23.244;2022-11-09T08:12:51;29.23;;;22.08;;
11414;SDS011;5763;42.714;23.244;2022-11-09T08:15:19;26.60;;;21.77;;
11414;SDS011;5763;42.714;23.244;2022-11-09T08:17:46;25.67;;;20.27;;
11414;SDS011;5763;42.714;23.244;2022-11-09T08:20:15;26.60;;;21.85;;
11414;SDS011;5763;42.714;23.244;2022-11-09T08:22:42;28.02;;;22.83;;
11414;SDS011;5763;42.714;23.244;2022-11-09T08:25:09;29.70;;;22.75;;
11414;SDS011;5763;42.714;23.244;2022-11-09T08:27:37;29.27;;;21.45;;
11414;SDS011;5763;42.714;23.244;2022-11-09T08:30:05;27.88;;;21.33;;
11414;SDS011;5763;42.714;23.244;2022-11-09T08:32:34;26.35;;;20.98;;
11414;SDS011;5763;42.714;23.244;2022-11-09T08:35:01;26.55;;;21.05;;
11414;SDS011;5763;42.714;23.244;2022-11-09T08:37:29;25.80;;;21.05;;
11414;SDS011;5763;42.714;23.244;2022-11-09T08:39:58;25.92;;;21.20;;
11414;SDS011;5763;42.714;23.244;2022-11-09T08:42:25;27.85;;;19.25;;
11414;SDS011;5763;42.714;23.244;2022-11-09T08:44:52;26.45;;;20.50;;
11414;SDS011;5763;42.714;23.244;2022-11-09T08:47:19;22.60;;;19.48;;
11414;SDS011;5763;42.714;23.244;2022-11-09T08:49:45;24.05;;;19.25;;
11414;SDS011;5763;42.714;23.244;2022-11-09T08:52:12;22.27;;;19.92;;
11414;SDS011;5763;42.714;23.244;2022-11-09T08:54:42;26.65;;;21.13;;
11414;SDS011;5763;42.714;23.244;2022-11-09T08:57:09;28.55;;;20.60;;
11414;SDS011;5763;42.714;23.244;2022-11-09T08:59:36;31.48;;;21.45;;
11414;SDS011;5763;42.714;23.244;2022-11-09T09:02:03;25.95;;;20.70;;
11414;SDS011;5763;42.714;23.244;2022-11-09T09:04:30;26.42;;;21.52;;
11414;SDS011;5763;42.714;23.244;2022-11-09T09:06:57;24.20;;;20.58;;
11414;SDS011;5763;42.714;23.244;2022-11-09T09:09:25;23.00;;;19.90;;
11414;SDS011;5763;42.714;23.244;2022-11-09T09:11:53;27.63;;;20.52;;
11414;SDS011;5763;42.714;23.244;2022-11-09T09:14:20;28.15;;;21.50;;
11414;SDS011;5763;42.714;23.244;2022-11-09T09:16:47;27.10;;;20.77;;
11414;SDS011;5763;42.714;23.244;2022-11-09T09:19:14;28.55;;;21.70;;
11414;SDS011;5763;42.714;23.244;2022-11-09T09:21:41;26.80;;;21.40;;
11414;SDS011;5763;42.714;23.244;2022-11-09T09:24:10;26.65;;;22.02;;
11414;SDS011;5763;42.714;23.244;2022-11-09T09:26:36;25.20;;;21.20;;
11414;SDS011;5763;42.714;23.244;2022-11-09T09:29:05;28.27;;;21.00;;
11414;SDS011;5763;42.714;23.244;2022-11-09T09:31:32;24.58;;;19.95;;
11414;SDS011;5763;42.714;23.244;2022-11-09T09:33:59;23.40;;;20.85;;
11414;SDS011;5763;42.714;23.244;2022-11-09T09:36:25;24.80;;;20.90;;
11414;SDS011;5763;42.714;23.244;2022-11-09T09:38:53;25.58;;;21.13;;
11414;SDS011;5763;42.714;23.244;2022-11-09T09:41:21;25.95;;;21.23;;
11414;SDS011;5763;42.714;23.244;2022-11-09T09:44:05;28.27;;;20.20;;
11414;SDS011;5763;42.714;23.244;2022-11-09T09:46:47;27.67;;;21.63;;
11414;SDS011;5763;42.714;23.244;2022-11-09T09:49:19;28.08;;;22.17;;
11414;SDS011;5763;42.714;23.244;2022-11-09T09:51:52;29.23;;;22.75;;
11414;SDS011;5763;42.714;23.244;2022-11-09T09:54:22;31.30;;;23.55;;
11414;SDS011;5763;42.714;23.244;2022-11-09T09:56:52;30.58;;;23.98;;
11414;SDS011;5763;42.714;23.244;2022-11-09T09:59:25;29.65;;;23.70;;
11414;SDS011;5763;42.714;23.244;2022-11-09T10:01:59;30.70;;;24.15;;
11414;SDS011;5763;42.714;23.244;2022-11-09T10:04:31;29.38;;;24.17;;
11414;SDS011;5763;42.714;23.244;2022-11-09T10:07:03;30.98;;;23.33;;
11414;SDS011;5763;42.714;23.244;2022-11-09T10:09:49;30.35;;;24.17;;
11414;SDS011;5763;42.714;23.244;2022-11-09T10:12:37;29.17;;;23.65;;
11414;SDS011;5763;42.714;23.244;2022-11-09T10:15:25;30.17;;;22.85;;
11414;SDS011;5763;42.714;23.244;2022-11-09T10:18:01;30.02;;;22.65;;
11414;SDS011;5763;42.714;23.244;2022-11-09T10:20:45;31.17;;;24.98;;
11414;SDS011;5763;42.714;23.244;2022-11-09T10:23:25;30.75;;;23.58;;
11414;SDS011;5763;42.714;23.244;2022-11-09T10:26:17;27.48;;;22.42;;
11414;SDS011;5763;42.714;23.244;2022-11-09T10:28:48;30.67;;;24.05;;
11414;SDS011;5763;42.714;23.244;2022-11-09T10:31:21;27.67;;;23.80;;
11414;SDS011;5763;42.714;23.244;2022-11-09T10:33:50;27.65;;;22.92;;
11414;SDS011;5763;42.714;23.244;2022-11-09T10:36:21;27.92;;;22.88;;
11414;SDS011;5763;42.714;23.244;2022-11-09T10:38:53;29.00;;;23.50;;
11414;SDS011;5763;42.714;23.244;2022-11-09T10:41:27;27.15;;;23.42;;
11414;SDS011;5763;42.714;23.244;2022-11-09T10:43:57;27.10;;;23.05;;
11414;SDS011;5763;42.714;23.244;2022-11-09T10:46:25;27.70;;;22.55;;
11414;SDS011;5763;42.714;23.244;2022-11-09T10:48:52;29.90;;;23.38;;
11414;SDS011;5763;42.714;23.244;2022-11-09T10:54:13;31.63;;;23.98;;
11414;SDS011;5763;42.714;23.244;2022-11-09T10:56:43;28.92;;;23.42;;
11414;SDS011;5763;42.714;23.244;2022-11-09T11:02:09;27.63;;;23.52;;
11414;SDS011;5763;42.714;23.244;2022-11-09T11:05:19;30.83;;;23.75;;
11414;SDS011;5763;42.714;23.244;2022-11-09T11:07:56;29.05;;;23.52;;
11414;SDS011;5763;42.714;23.244;2022-11-09T11:10:24;27.77;;;23.52;;
11414;SDS011;5763;42.714;23.244;2022-11-09T11:12:51;25.10;;;22.38;;
11414;SDS011;5763;42.714;23.244;2022-11-09T11:15:43;28.73;;;23.42;;
11414;SDS011;5763;42.714;23.244;2022-11-09T11:18:15;28.55;;;23.85;;
11414;SDS011;5763;42.714;23.244;2022-11-09T11:20:46;26.30;;;22.17;;
11414;SDS011;5763;42.714;23.244;2022-11-09T11:23:14;30.60;;;23.27;;
11414;SDS011;5763;42.714;23.244;2022-11-09T11:25:54;27.88;;;22.13;;
11414;SDS011;5763;42.714;23.244;2022-11-09T11:28:32;27.70;;;22.75;;
11414;SDS011;5763;42.714;23.244;2022-11-09T11:31:05;24.27;;;21.65;;
11414;SDS011;5763;42.714;23.244;2022-11-09T11:33:38;27.05;;;23.15;;
11414;SDS011;5763;42.714;23.244;2022-11-09T11:36:07;26.10;;;21.95;;
11414;SDS011;5763;42.714;23.244;2022-11-09T11:38:45;25.80;;;21.33;;
11414;SDS011;5763;42.714;23.244;2022-11-09T11:41:25;26.90;;;22.63;;
11414;SDS011;5763;42.714;23.244;2022-11-09T11:44:08;24.33;;;21.70;;
11414;SDS011;5763;42.714;23.244;2022-11-09T11:46:45;25.45;;;22.02;;
11414;SDS011;5763;42.714;23.244;2022-11-09T11:49:25;27.60;;;23.13;;
11414;SDS011;5763;42.714;23.244;2022-11-09T11:52:01;27.05;;;23.35;;
11414;SDS011;5763;42.714;23.244;2022-11-09T11:54:37;27.50;;;23.33;;
11414;SDS011;5763;42.714;23.244;2022-11-09T11:57:16;24.98;;;21.92;;
11414;SDS011;5763;42.714;23.244;2022-11-09T12:00:00;28.27;;;22.98;;
11414;SDS011;5763;42.714;23.244;2022-11-09T12:02:49;26.33;;;22.05;;
11414;SDS011;5763;42.714;23.244;2022-11-09T12:08:49;25.80;;;22.13;;
11414;SDS011;5763;42.714;23.244;2022-11-09T12:11:47;29.25;;;22.98;;
11414;SDS011;5763;42.714;23.244;2022-11-09T12:14:24;27.08;;;22.63;;
11414;SDS011;5763;42.714;23.244;2022-11-09T12:17:00;27.13;;;23.70;;
11414;SDS011;5763;42.714;23.244;2022-11-09T12:19:44;29.63;;;23.38;;
11414;SDS011;5763;42.714;23.244;2022-11-09T12:22:21;27.25;;;23.05;;
11414;SDS011;5763;42.714;23.244;2022-11-09T12:24:56;27.13;;;22.60;;
11414;SDS011;5763;42.714;23.244;2022-11-09T12:27:38;26.23;;;22.05;;
11414;SDS011;5763;42.714;23.244;2022-11-09T12:30:13;26.65;;;23.13;;
11414;SDS011;5763;42.714;23.244;2022-11-09T12:32:44;29.50;;;23.80;;
11414;SDS011;5763;42.714;23.244;2022-11-09T12:35:17;30.90;;;22.90;;
11414;SDS011;5763;42.714;23.244;2022-11-09T12:37:51;24.33;;;21.40;;
11414;SDS011;5763;42.714;23.244;2022-11-09T12:40:23;24.63;;;22.00;;
11414;SDS011;5763;42.714;23.244;2022-11-09T12:42:52;28.35;;;22.15;;
11414;SDS011;5763;42.714;23.244;2022-11-09T12:45:26;27.63;;;22.77;;
11414;SDS011;5763;42.714;23.244;2022-11-09T12:47:56;26.30;;;22.52;;
11414;SDS011;5763;42.714;23.244;2022-11-09T12:50:29;25.02;;;22.40;;
11414;SDS011;5763;42.714;23.244;2022-11-09T12:52:58;28.00;;;22.83;;
11414;SDS011;5763;42.714;23.244;2022-11-09T12:55:31;28.80;;;21.45;;
11414;SDS011;5763;42.714;23.244;2022-11-09T12:58:04;25.80;;;23.08;;
11414;SDS011;5763;42.714;23.244;2022-11-09T13:00:45;25.13;;;21.75;;
11414;SDS011;5763;42.714;23.244;2022-11-09T13:03:16;27.60;;;22.05;;
11414;SDS011;5763;42.714;23.244;2022-11-09T13:05:47;23.73;;;21.20;;
11414;SDS011;5763;42.714;23.244;2022-11-09T13:08:16;26.90;;;21.27;;
11414;SDS011;5763;42.714;23.244;2022-11-09T13:10:45;25.25;;;22.17;;
11414;SDS011;5763;42.714;23.244;2022-11-09T13:13:18;25.13;;;21.45;;
11414;SDS011;5763;42.714;23.244;2022-11-09T13:16:08;25.75;;;20.85;;
11414;SDS011;5763;42.714;23.244;2022-11-09T13:18:47;25.42;;;22.50;;
11414;SDS011;5763;42.714;23.244;2022-11-09T13:33:23;29.08;;;21.58;;
11414;SDS011;5763;42.714;23.244;2022-11-09T13:35:55;28.63;;;21.35;;
11414;SDS011;5763;42.714;23.244;2022-11-09T13:38:24;25.40;;;20.60;;
11414;SDS011;5763;42.714;23.244;2022-11-09T13:40:53;26.85;;;20.98;;
11414;SDS011;5763;42.714;23.244;2022-11-09T13:43:23;27.92;;;21.33;;
11414;SDS011;5763;42.714;23.244;2022-11-09T13:45:53;24.25;;;21.02;;
11414;SDS011;5763;42.714;23.244;2022-11-09T13:48:32;28.95;;;21.35;;
11414;SDS011;5763;42.714;23.244;2022-11-09T13:51:03;23.48;;;20.75;;
11414;SDS011;5763;42.714;23.244;2022-11-09T13:53:46;26.75;;;21.08;;
11414;SDS011;5763;42.714;23.244;2022-11-09T13:56:20;26.60;;;20.80;;
11414;SDS011;5763;42.714;23.244;2022-11-09T13:58:53;26.38;;;20.65;;
11414;SDS011;5763;42.714;23.244;2022-11-09T14:01:23;26.30;;;20.23;;
11414;SDS011;5763;42.714;23.244;2022-11-09T14:03:52;29.33;;;21.25;;
11414;SDS011;5763;42.714;23.244;2022-11-09T14:06:18;28.20;;;21.38;;
11414;SDS011;5763;42.714;23.244;2022-11-09T14:08:45;27.08;;;22.25;;
11414;SDS011;5763;42.714;23.244;2022-11-09T14:11:20;26.90;;;20.73;;
11414;SDS011;5763;42.714;23.244;2022-11-09T14:14:13;25.02;;;20.50;;
11414;SDS011;5763;42.714;23.244;2022-11-09T14:16:58;25.42;;;20.63;;
11414;SDS011;5763;42.714;23.244;2022-11-09T14:19:30;27.02;;;21.30;;
11414;SDS011;5763;42.714;23.244;2022-11-09T14:22:11;27.75;;;20.67;;
11414;SDS011;5763;42.714;23.244;2022-11-09T14:24:40;26.65;;;19.77;;
11414;SDS011;5763;42.714;23.244;2022-11-09T14:27:12;22.92;;;20.25;;
11414;SDS011;5763;42.714;23.244;2022-11-09T14:29:48;23.77;;;20.60;;
11414;SDS011;5763;42.714;23.244;2022-11-09T14:32:24;26.05;;;20.27;;
11414;SDS011;5763;42.714;23.244;2022-11-09T14:35:08;27.75;;;20.60;;
11414;SDS011;5763;42.714;23.244;2022-11-09T14:37:44;24.95;;;18.83;;
11414;SDS011;5763;42.714;23.244;2022-11-09T14:40:17;26.52;;;20.30;;
11414;SDS011;5763;42.714;23.244;2022-11-09T14:42:47;24.70;;;19.23;;
11414;SDS011;5763;42.714;23.244;2022-11-09T14:45:18;26.98;;;20.33;;
11414;SDS011;5763;42.714;23.244;2022-11-09T14:47:47;28.65;;;20.50;;
11414;SDS011;5763;42.714;23.244;2022-11-09T14:50:17;27.38;;;20.85;;
11414;SDS011;5763;42.714;23.244;2022-11-09T14:52:47;28.00;;;20.77;;
11414;SDS011;5763;42.714;23.244;2022-11-09T14:55:16;25.75;;;20.77;;
11414;SDS011;5763;42.714;23.244;2022-11-09T14:57:45;32.13;;;21.90;;